Time;durP1;ratioP1;P1;durP2;ratioP2;P2;SDS_P1;SDS_P2;PMS_P1;PMS_P2;Temp;Humidity;BMP_temperature;BMP_pressure;BME280_temperature;BME280_humidity;BME280_pressure;Samples;Min_cycle;Max_cycle;Signal;HPM_P1;HPM_P2
2022/04/30 00:00:36;;;;;;;3.40;1.83;;;12.60;1.00;;;;;;5073408;28;20450;-82
2022/04/30 00:03:04;;;;;;;3.17;2.70;;;12.50;1.00;;;;;;5060829;28;20444;-81
2022/04/30 00:05:33;;;;;;;2.03;0.50;;;12.50;1.00;;;;;;5056722;28;20873;-81
2022/04/30 00:08:04;;;;;;;1.63;1.03;;;12.40;1.00;;;;;;5056384;28;20478;-79
2022/04/30 00:10:37;;;;;;;5.23;2.70;;;;;;;;;;5056961;28;20498;-80
2022/04/30 00:13:07;;;;;;;5.83;2.03;;;12.40;1.00;;;;;;5057384;28;20489;-81
2022/04/30 00:15:35;;;;;;;1.43;1.30;;;12.40;1.00;;;;;;5056031;28;20469;-81
2022/04/30 00:18:04;;;;;;;1.63;1.03;;;12.40;1.00;;;;;;5055892;28;20538;-80
2022/04/30 00:20:32;;;;;;;4.43;2.57;;;12.40;1.00;;;;;;5056567;28;20443;-80
2022/04/30 00:23:00;;;;;;;2.70;1.70;;;12.30;1.00;;;;;;5056213;28;20599;-83
2022/04/30 00:25:29;;;;;;;4.43;3.20;;;12.20;1.00;;;;;;5052959;28;20821;-82
2022/04/30 00:27:57;;;;;;;2.73;2.53;;;;;;;;;;5038555;28;20483;-80
2022/04/30 00:30:25;;;;;;;4.07;2.47;;;12.20;1.00;;;;;;5068755;28;20543;-83
2022/04/30 00:32:54;;;;;;;1.43;0.73;;;12.20;1.00;;;;;;5077565;28;20446;-82
2022/04/30 00:35:22;;;;;;;0.70;0.40;;;12.20;1.00;;;;;;5057228;28;20471;-80
2022/04/30 00:37:50;;;;;;;2.80;2.00;;;12.20;1.00;;;;;;5061704;28;20527;-79
2022/04/30 00:40:18;;;;;;;1.27;0.73;;;12.20;1.00;;;;;;5061609;28;20477;-80
2022/04/30 00:42:47;;;;;;;1.70;1.40;;;12.10;1.00;;;;;;5062376;28;20461;-81
2022/04/30 00:45:16;;;;;;;3.70;1.17;;;12.10;1.00;;;;;;5047562;28;20478;-81
2022/04/30 00:47:44;;;;;;;2.47;1.37;;;12.10;1.00;;;;;;5040021;28;20510;-80
2022/04/30 00:50:15;;;;;;;1.60;1.40;;;12.10;1.00;;;;;;5048671;28;20455;-80
2022/04/30 00:52:44;;;;;;;1.10;0.47;;;12.10;1.00;;;;;;5059901;28;20428;-82
2022/04/30 00:55:13;;;;;;;1.00;0.50;;;12.10;1.00;;;;;;5059190;28;20844;-81
2022/04/30 00:57:44;;;;;;;5.47;2.87;;;12.10;1.00;;;;;;5039072;28;20443;-80
2022/04/30 01:00:14;;;;;;;2.80;2.10;;;12.10;1.00;;;;;;5052015;28;20477;-81
2022/04/30 01:02:43;;;;;;;0.70;0.37;;;12.00;1.00;;;;;;5039744;28;20450;-81
2022/04/30 01:05:11;;;;;;;2.50;1.90;;;11.90;1.00;;;;;;5039176;28;20491;-82
2022/04/30 01:07:40;;;;;;;2.50;1.73;;;11.90;1.00;;;;;;5048321;28;20446;-82
2022/04/30 01:10:09;;;;;;;0.60;0.30;;;11.80;1.00;;;;;;5046518;28;20530;-82
2022/04/30 01:12:37;;;;;;;1.70;1.00;;;;;;;;;;5050853;28;20451;-82
2022/04/30 01:15:06;;;;;;;1.47;0.97;;;11.70;1.00;;;;;;5042266;28;20489;-81
2022/04/30 01:17:38;;;;;;;1.87;1.70;;;11.70;1.00;;;;;;5050050;28;20435;-83
2022/04/30 01:20:07;;;;;;;0.60;0.10;;;11.70;1.00;;;;;;5058812;28;20865;-80
2022/04/30 01:22:41;;;;;;;3.33;2.83;;;11.80;1.00;;;;;;5058598;28;20431;-83
2022/04/30 01:25:14;;;;;;;2.70;1.77;;;11.80;1.00;;;;;;5078945;28;20498;-83
2022/04/30 01:27:42;;;;;;;1.13;1.10;;;11.80;1.00;;;;;;5049337;28;20441;-82
2022/04/30 01:30:13;;;;;;;0.60;0.10;;;11.80;1.00;;;;;;5039854;28;20941;-82
2022/04/30 01:38:12;;;;;;;0.70;0.40;;;11.90;1.00;;;;;;5056029;28;20446;-82
2022/04/30 01:40:42;;;;;;;0.70;0.27;;;;;;;;;;5038014;28;20531;-80
2022/04/30 01:43:11;;;;;;;2.50;2.30;;;11.80;1.00;;;;;;5043773;28;20450;-81
2022/04/30 01:45:39;;;;;;;1.00;0.63;;;11.80;1.00;;;;;;5060004;28;20478;-81
2022/04/30 01:48:08;;;;;;;0.60;0.10;;;11.80;1.00;;;;;;5060083;28;20462;-82
2022/04/30 01:50:36;;;;;;;0.60;0.20;;;11.80;1.00;;;;;;5044348;28;20471;-82
2022/04/30 01:53:04;;;;;;;0.60;0.20;;;11.80;1.00;;;;;;5048867;28;20505;-81
2022/04/30 01:55:32;;;;;;;0.60;0.10;;;11.80;1.00;;;;;;5060848;28;20533;-81
2022/04/30 01:58:01;;;;;;;0.60;0.10;;;11.90;1.00;;;;;;5056013;28;20455;-81
2022/04/30 02:00:30;;;;;;;2.93;0.60;;;11.90;1.00;;;;;;5039919;28;20466;-83
2022/04/30 02:03:07;;;;;;;1.30;0.93;;;11.70;1.00;;;;;;5041315;28;20532;-83
2022/04/30 02:05:38;;;;;;;0.70;0.20;;;11.70;1.00;;;;;;5041486;28;20498;-81
2022/04/30 02:08:08;;;;;;;0.90;0.47;;;11.70;1.00;;;;;;5039573;28;20495;-82
2022/04/30 02:10:37;;;;;;;2.30;1.80;;;11.70;1.00;;;;;;5037759;28;20927;-82
2022/04/30 02:13:08;;;;;;;0.60;0.20;;;11.70;1.00;;;;;;5038952;28;20450;-82
2022/04/30 02:15:39;;;;;;;12.33;11.03;;;11.60;1.00;;;;;;5038244;28;20543;-81
2022/04/30 02:18:12;;;;;;;1.20;1.00;;;11.60;1.00;;;;;;5038052;28;20452;-82
2022/04/30 02:20:43;;;;;;;0.60;0.10;;;11.60;1.00;;;;;;5051140;28;20820;-81
2022/04/30 02:23:11;;;;;;;2.20;2.00;;;11.60;1.00;;;;;;5059808;28;20489;-83
2022/04/30 02:25:39;;;;;;;1.17;0.77;;;11.60;1.00;;;;;;5065627;28;20508;-80
2022/04/30 02:28:10;;;;;;;0.60;0.10;;;11.60;1.00;;;;;;5053120;28;20534;-81
2022/04/30 02:30:39;;;;;;;0.73;0.60;;;11.60;1.00;;;;;;5058228;28;20446;-81
2022/04/30 02:33:09;;;;;;;1.10;0.87;;;11.60;1.00;;;;;;5050764;28;20512;-83
2022/04/30 02:35:38;;;;;;;0.70;0.30;;;11.60;1.00;;;;;;5058625;28;20538;-81
2022/04/30 02:38:08;;;;;;;0.60;0.10;;;11.60;1.00;;;;;;5058873;28;20807;-84
2022/04/30 02:40:37;;;;;;;0.60;0.30;;;11.60;1.00;;;;;;5056167;28;20447;-83
2022/04/30 02:43:07;;;;;;;0.60;0.20;;;11.70;1.00;;;;;;5061375;28;20437;-83
2022/04/30 02:45:37;;;;;;;0.60;0.10;;;11.60;1.00;;;;;;5059806;28;20476;-81
2022/04/30 02:48:07;;;;;;;0.60;0.10;;;11.60;1.00;;;;;;5049561;28;20834;-82
2022/04/30 02:50:36;;;;;;;0.60;0.10;;;11.60;1.00;;;;;;5039023;28;20818;-82
2022/04/30 02:53:05;;;;;;;0.63;0.23;;;11.70;1.00;;;;;;5057102;28;20478;-81
2022/04/30 02:55:35;;;;;;;0.60;0.10;;;;;;;;;;5056865;28;20816;-81
2022/04/30 03:00:51;;;;;;;0.60;0.10;;;11.60;1.00;;;;;;5048150;28;20458;-80
2022/04/30 03:03:20;;;;;;;0.60;0.20;;;11.70;1.00;;;;;;5042313;28;20830;-81
2022/04/30 03:05:50;;;;;;;1.57;0.87;;;;;;;;;;5050356;23;20482;-71
2022/04/30 03:08:20;;;;;;;0.60;0.30;;;11.70;1.00;;;;;;5050408;28;20443;-71
2022/04/30 03:10:50;;;;;;;0.70;0.50;;;11.70;1.00;;;;;;5052329;28;20450;-70
2022/04/30 03:13:18;;;;;;;0.60;0.10;;;11.60;1.00;;;;;;5052135;28;20438;-73
2022/04/30 03:15:48;;;;;;;0.93;0.83;;;11.60;1.00;;;;;;5055212;28;20495;-72
2022/04/30 03:24:07;;;;;;;6.63;3.73;;;11.50;1.00;;;;;;5013063;28;20459;-71
2022/04/30 03:26:35;;;;;;;0.60;0.10;;;11.50;1.00;;;;;;5026231;28;20475;-71
2022/04/30 03:29:03;;;;;;;0.70;0.30;;;11.40;1.00;;;;;;5049110;28;20450;-72
2022/04/30 03:31:32;;;;;;;1.73;1.30;;;11.40;1.00;;;;;;5068411;28;20656;-73
2022/04/30 03:34:01;;;;;;;0.60;0.10;;;11.40;1.00;;;;;;5063384;28;20507;-72
2022/04/30 03:36:29;;;;;;;0.70;0.57;;;11.20;1.00;;;;;;5061513;28;20461;-72
2022/04/30 03:38:57;;;;;;;2.63;2.43;;;11.20;1.00;;;;;;5061629;28;20458;-73
2022/04/30 03:41:25;;;;;;;0.60;0.13;;;11.10;1.00;;;;;;5066553;28;20457;-72
2022/04/30 03:43:53;;;;;;;3.17;2.87;;;11.10;1.00;;;;;;5072395;28;20553;-72
2022/04/30 03:46:21;;;;;;;1.33;1.23;;;;;;;;;;5066863;28;20497;-73
2022/04/30 03:48:53;;;;;;;1.70;1.27;;;11.00;1.00;;;;;;5052306;28;20460;-72
2022/04/30 03:51:22;;;;;;;2.83;2.40;;;10.90;1.00;;;;;;5052109;28;20955;-72
2022/04/30 03:53:51;;;;;;;0.60;0.20;;;10.90;1.00;;;;;;5051696;28;20545;-72
2022/04/30 03:56:19;;;;;;;0.70;0.53;;;11.00;1.00;;;;;;5063606;28;20467;-74
2022/04/30 03:58:48;;;;;;;1.13;0.97;;;11.00;1.00;;;;;;5050887;28;20446;-73
2022/04/30 04:01:18;;;;;;;1.70;1.60;;;10.90;1.00;;;;;;5050364;28;20434;-73
2022/04/30 04:03:48;;;;;;;1.57;1.20;;;10.90;1.00;;;;;;5051934;28;20442;-73
2022/04/30 04:06:16;;;;;;;1.10;0.50;;;10.90;1.00;;;;;;5062311;28;20532;-73
2022/04/30 04:08:49;;;;;;;0.70;0.33;;;10.90;1.00;;;;;;5063672;28;20833;-74
2022/04/30 04:11:17;;;;;;;1.33;1.23;;;10.90;1.00;;;;;;5071045;28;20475;-74
2022/04/30 04:19:15;;;;;;;5.03;2.33;;;10.90;1.00;;;;;;5061646;28;20453;-73
2022/04/30 04:21:43;;;;;;;1.83;0.50;;;10.90;1.00;;;;;;5070853;28;20468;-73
2022/04/30 04:26:58;;;;;;;2.50;1.70;;;10.80;1.00;;;;;;5070035;28;20469;-73
2022/04/30 04:29:26;;;;;;;2.00;1.00;;;;;;;;;;5070699;28;20454;-72
2022/04/30 04:31:54;;;;;;;0.90;0.47;;;10.80;1.00;;;;;;5071067;28;20451;-73
2022/04/30 04:34:22;;;;;;;2.03;1.23;;;13.60;1.00;;;;;;5068992;28;20930;-73
2022/04/30 04:36:50;;;;;;;1.43;1.33;;;10.60;1.00;;;;;;5058559;28;20461;-73
2022/04/30 04:39:19;;;;;;;0.80;0.63;;;10.60;1.00;;;;;;5071016;28;20537;-73
2022/04/30 04:41:48;;;;;;;0.70;0.23;;;;;;;;;;5071214;28;20449;-72
2022/04/30 04:44:16;;;;;;;0.83;0.40;;;10.60;1.00;;;;;;5054165;28;20468;-72
2022/04/30 04:46:44;;;;;;;0.60;0.10;;;10.60;1.00;;;;;;5061699;28;20474;-73
2022/04/30 04:49:12;;;;;;;2.23;1.30;;;10.60;1.00;;;;;;5052118;28;20446;-72
2022/04/30 04:51:40;;;;;;;1.10;0.77;;;10.60;1.00;;;;;;5070592;28;20442;-73
2022/04/30 04:54:08;;;;;;;1.10;0.70;;;10.50;1.00;;;;;;5071111;28;20453;-73
2022/04/30 04:56:38;;;;;;;2.27;2.17;;;10.50;1.00;;;;;;5072453;28;20465;-72
2022/04/30 04:59:08;;;;;;;2.73;2.53;;;10.40;1.00;;;;;;5072653;28;20448;-72
2022/04/30 05:01:36;;;;;;;0.90;0.60;;;10.40;1.00;;;;;;5069921;28;20456;-72
2022/04/30 05:04:05;;;;;;;1.07;0.57;;;10.50;1.00;;;;;;5059987;28;20452;-72
2022/04/30 05:06:33;;;;;;;1.20;0.80;;;;;;;;;;5061510;28;20487;-72
2022/04/30 05:09:01;;;;;;;1.43;0.70;;;10.50;1.00;;;;;;5070538;28;20532;-72
2022/04/30 05:11:29;;;;;;;1.00;0.80;;;10.50;1.00;;;;;;5070777;28;20449;-72
2022/04/30 05:13:58;;;;;;;2.50;1.17;;;10.50;1.00;;;;;;5072010;28;20441;-72
2022/04/30 05:16:26;;;;;;;7.53;2.17;;;10.40;1.00;;;;;;5061661;28;20469;-72
2022/04/30 05:18:54;;;;;;;1.43;0.50;;;10.40;1.00;;;;;;5074699;28;20472;-72
2022/04/30 05:21:21;;;;;;;3.40;2.23;;;10.40;1.00;;;;;;5074658;28;20442;-72
2022/04/30 05:23:49;;;;;;;0.80;0.30;;;10.30;1.00;;;;;;5074233;28;20452;-72
2022/04/30 05:26:17;;;;;;;0.60;0.20;;;10.30;1.00;;;;;;5073428;28;20481;-72
2022/04/30 05:28:45;;;;;;;0.60;0.20;;;10.30;1.00;;;;;;5074775;28;20449;-72
2022/04/30 05:31:14;;;;;;;1.50;1.40;;;10.30;1.00;;;;;;5075721;28;20978;-72
2022/04/30 05:33:42;;;;;;;1.03;0.80;;;10.30;1.00;;;;;;5074718;28;20487;-73
2022/04/30 05:36:10;;;;;;;3.00;2.73;;;10.20;1.00;;;;;;5073872;28;20472;-72
2022/04/30 05:38:38;;;;;;;5.07;3.50;;;10.20;1.00;;;;;;5074449;28;20452;-71
2022/04/30 05:41:06;;;;;;;1.13;1.03;;;10.10;1.00;;;;;;5073826;28;20963;-71
2022/04/30 05:43:34;;;;;;;4.70;2.80;;;10.10;1.00;;;;;;5074734;28;20955;-72
2022/04/30 05:46:01;;;;;;;1.13;0.90;;;10.00;1.00;;;;;;5060747;28;20984;-72
2022/04/30 05:48:31;;;;;;;1.83;1.33;;;10.10;1.00;;;;;;5054444;28;20905;-72
2022/04/30 05:50:59;;;;;;;0.60;0.40;;;10.00;1.00;;;;;;5054750;28;20446;-71
2022/04/30 05:53:26;;;;;;;4.23;1.03;;;10.00;1.00;;;;;;5054385;28;20449;-72
2022/04/30 05:55:54;;;;;;;1.03;0.60;;;10.00;1.00;;;;;;5068598;28;20516;-72
2022/04/30 05:58:22;;;;;;;0.70;0.40;;;10.00;1.00;;;;;;5072127;28;20458;-71
2022/04/30 06:00:50;;;;;;;1.90;1.07;;;10.00;1.00;;;;;;5058434;28;20801;-71
2022/04/30 06:03:18;;;;;;;3.10;2.23;;;9.90;1.00;;;;;;5069756;28;20457;-71
2022/04/30 06:05:48;;;;;;;1.30;1.17;;;9.80;1.00;;;;;;5053464;28;20466;-71
2022/04/30 06:08:16;;;;;;;1.77;0.50;;;9.80;1.00;;;;;;5067235;28;20821;-72
2022/04/30 06:10:44;;;;;;;2.73;1.70;;;;;;;;;;5061791;28;20455;-72
2022/04/30 06:13:12;;;;;;;1.43;1.33;;;9.70;1.00;;;;;;5053857;28;20450;-72
2022/04/30 06:15:40;;;;;;;1.57;1.07;;;9.70;1.00;;;;;;5054519;28;20456;-71
2022/04/30 06:18:08;;;;;;;3.37;2.10;;;9.70;1.00;;;;;;5065998;28;20454;-73
2022/04/30 06:20:36;;;;;;;7.13;4.80;;;9.70;1.00;;;;;;5072828;28;20446;-72
2022/04/30 06:23:06;;;;;;;0.97;0.87;;;9.70;1.00;;;;;;5073141;28;20453;-72
2022/04/30 06:25:35;;;;;;;2.13;1.93;;;9.80;1.00;;;;;;5071654;28;20468;-72
2022/04/30 06:28:03;;;;;;;2.67;2.47;;;9.70;1.00;;;;;;5071522;28;20487;-73
2022/04/30 06:30:31;;;;;;;2.00;1.83;;;9.60;1.00;;;;;;5054731;28;20450;-70
2022/04/30 06:32:59;;;;;;;1.17;1.07;;;;;;;;;;5058409;28;20461;-71
2022/04/30 06:35:27;;;;;;;0.60;0.20;;;9.90;1.00;;;;;;5061618;28;21035;-72
2022/04/30 06:38:00;;;;;;;0.60;0.10;;;9.90;1.00;;;;;;5052157;28;20944;-72
2022/04/30 06:40:31;;;;;;;0.60;0.13;;;;;;;;;;5060584;28;20772;-72
2022/04/30 06:43:00;;;;;;;0.60;0.10;;;10.00;1.00;;;;;;5060711;28;20461;-72
2022/04/30 06:45:28;;;;;;;0.60;0.10;;;10.20;1.00;;;;;;5059755;28;20457;-72
2022/04/30 06:47:56;;;;;;;2.40;1.70;;;10.10;1.00;;;;;;5070910;28;20477;-72
2022/04/30 06:50:24;;;;;;;1.00;0.50;;;10.20;1.00;;;;;;5072573;28;20449;-71
2022/04/30 06:58:24;;;;;;;0.60;0.10;;;10.30;1.00;;;;;;5054244;28;20455;-72
2022/04/30 07:03:37;;;;;;;0.60;0.10;;;10.30;1.00;;;;;;5073026;28;20507;-72
2022/04/30 07:06:07;;;;;;;1.23;0.63;;;10.20;1.00;;;;;;5068464;28;20477;-71
2022/04/30 07:08:35;;;;;;;0.60;0.10;;;10.30;1.00;;;;;;5062811;28;20847;-70
2022/04/30 07:11:04;;;;;;;0.70;0.40;;;10.30;1.00;;;;;;5052331;28;20477;-71
2022/04/30 07:13:32;;;;;;;1.47;1.37;;;10.40;1.00;;;;;;5051224;28;20803;-72
2022/04/30 07:16:00;;;;;;;0.70;0.40;;;10.30;1.00;;;;;;5051837;28;20478;-71
2022/04/30 07:18:28;;;;;;;0.80;0.80;;;10.30;1.00;;;;;;5064928;28;20532;-70
2022/04/30 07:20:56;;;;;;;1.57;1.47;;;10.30;1.00;;;;;;5072144;28;20811;-72
2022/04/30 07:23:24;;;;;;;0.97;0.90;;;10.20;1.00;;;;;;5072072;28;20465;-72
2022/04/30 07:25:51;;;;;;;0.97;0.87;;;10.00;1.00;;;;;;5072103;28;20580;-71
2022/04/30 07:28:22;;;;;;;3.70;3.50;;;10.20;1.00;;;;;;5068056;28;20473;-71
2022/04/30 07:30:51;;;;;;;4.07;1.70;;;10.20;1.00;;;;;;5063078;28;20445;-73
2022/04/30 07:33:19;;;;;;;0.90;0.50;;;10.20;1.00;;;;;;5070896;28;20541;-72
2022/04/30 07:35:47;;;;;;;1.43;0.43;;;10.20;1.00;;;;;;5079712;28;20590;-71
2022/04/30 07:38:15;;;;;;;0.90;0.40;;;10.30;1.00;;;;;;5080238;28;20441;-71
2022/04/30 07:40:43;;;;;;;0.97;0.63;;;10.30;1.00;;;;;;5060849;28;20460;-71
2022/04/30 07:43:10;;;;;;;1.03;0.40;;;10.30;1.00;;;;;;5075988;28;20446;-71
2022/04/30 07:45:40;;;;;;;3.10;1.13;;;10.40;1.00;;;;;;5052381;28;20457;-71
2022/04/30 07:48:08;;;;;;;0.60;0.10;;;10.40;1.00;;;;;;5052187;28;20573;-70
2022/04/30 07:50:36;;;;;;;0.60;0.10;;;10.40;1.00;;;;;;5052564;28;20459;-72
2022/04/30 07:53:05;;;;;;;0.60;0.20;;;10.40;1.00;;;;;;5072071;28;20442;-72
2022/04/30 07:55:33;;;;;;;2.03;1.23;;;10.40;1.00;;;;;;5072352;28;20561;-72
2022/04/30 07:58:02;;;;;;;1.97;0.83;;;10.40;1.00;;;;;;5071456;28;20449;-76
2022/04/30 08:00:30;;;;;;;0.60;0.10;;;10.40;1.00;;;;;;5070606;28;20473;-73
2022/04/30 08:03:00;;;;;;;0.70;0.60;;;10.40;1.00;;;;;;5072921;28;20544;-72
2022/04/30 08:05:29;;;;;;;0.60;0.27;;;10.40;1.00;;;;;;5073496;28;20631;-72
2022/04/30 08:07:56;;;;;;;3.13;1.03;;;10.40;1.00;;;;;;5080967;28;20874;-71
2022/04/30 08:10:25;;;;;;;0.60;0.10;;;10.50;1.00;;;;;;5084409;28;20440;-71
2022/04/30 08:12:54;;;;;;;2.67;2.57;;;10.50;1.00;;;;;;5066753;28;20476;-73
2022/04/30 08:15:24;;;;;;;0.87;0.60;;;10.60;1.00;;;;;;5078001;28;20470;-72
2022/04/30 08:17:52;;;;;;;0.70;0.30;;;10.60;1.00;;;;;;5077472;28;20441;-71
2022/04/30 08:20:22;;;;;;;1.17;0.43;;;10.50;1.00;;;;;;5078507;28;20545;-71
2022/04/30 08:22:50;;;;;;;0.60;0.20;;;10.60;1.00;;;;;;5065843;28;20450;-71
2022/04/30 08:25:18;;;;;;;1.80;1.70;;;;;;;;;;5051699;28;20446;-73
2022/04/30 08:27:46;;;;;;;1.10;0.87;;;10.50;1.00;;;;;;5055298;28;20473;-71
2022/04/30 08:30:15;;;;;;;0.60;0.43;;;10.40;1.00;;;;;;5072518;28;20818;-70
2022/04/30 08:32:43;;;;;;;0.60;0.10;;;10.50;1.00;;;;;;5062074;28;20987;-72
2022/04/30 08:35:10;;;;;;;1.23;1.07;;;10.50;1.00;;;;;;5064299;28;20478;-72
2022/04/30 08:38:00;;;;;;;0.60;0.10;;;10.40;1.00;;;;;;5060694;28;20426;-72
2022/04/30 08:40:27;;;;;;;0.60;0.30;;;10.40;1.00;;;;;;5072267;28;20442;-74
2022/04/30 08:42:55;;;;;;;0.60;0.10;;;10.40;1.00;;;;;;5075836;28;20477;-71
2022/04/30 08:45:24;;;;;;;0.60;0.40;;;10.30;1.00;;;;;;5061218;28;20461;-72
2022/04/30 08:47:54;;;;;;;1.47;0.93;;;10.20;1.00;;;;;;5070767;28;20446;-72
2022/04/30 08:50:22;;;;;;;1.43;0.70;;;10.10;1.00;;;;;;5084289;28;20925;-73
2022/04/30 08:52:51;;;;;;;0.90;0.33;;;10.00;1.00;;;;;;5067950;28;20461;-72
2022/04/30 08:55:21;;;;;;;0.60;0.10;;;;;;;;;;5056541;28;20446;-73
2022/04/30 08:57:48;;;;;;;1.10;0.90;;;10.00;1.00;;;;;;5071121;28;20469;-73
2022/04/30 09:00:17;;;;;;;0.60;0.10;;;10.00;1.00;;;;;;5056705;28;20786;-73
2022/04/30 09:02:50;;;;;;;0.80;0.60;;;10.00;1.00;;;;;;5061611;28;20501;-73
2022/04/30 09:05:19;;;;;;;0.60;0.10;;;9.90;1.00;;;;;;5077639;28;20437;-72
2022/04/30 09:07:54;;;;;;;1.67;0.77;;;9.90;1.00;;;;;;5072650;28;20487;-72
2022/04/30 09:10:25;;;;;;;0.60;0.30;;;9.90;1.00;;;;;;5073569;28;20587;-74
2022/04/30 09:12:53;;;;;;;2.10;1.47;;;9.80;1.00;;;;;;5104374;23;20463;-81
2022/04/30 09:15:21;;;;;;;0.60;0.10;;;9.80;1.00;;;;;;5056365;28;20423;-80
2022/04/30 09:17:58;;;;;;;4.10;1.67;;;9.80;1.00;;;;;;5048281;28;20507;-81
2022/04/30 09:20:26;;;;;;;0.90;0.50;;;9.80;1.00;;;;;;5049719;28;20515;-82
2022/04/30 09:22:54;;;;;;;0.80;0.20;;;9.90;1.00;;;;;;5045907;28;20494;-81
2022/04/30 09:25:24;;;;;;;1.73;1.63;;;9.90;1.00;;;;;;5044654;28;20862;-82
2022/04/30 09:28:03;;;;;;;0.93;0.50;;;9.80;1.00;;;;;;5045979;28;20913;-82
2022/04/30 09:30:32;;;;;;;1.10;0.80;;;9.80;1.00;;;;;;5043331;28;20475;-82
2022/04/30 09:33:02;;;;;;;0.60;0.10;;;9.80;1.00;;;;;;5042871;28;20554;-83
2022/04/30 09:38:17;;;;;;;0.60;0.10;;;9.80;1.00;;;;;;5043810;28;20439;-83
2022/04/30 09:40:57;;;;;;;1.23;0.63;;;9.80;1.00;;;;;;5046400;28;20461;-82
2022/04/30 09:43:29;;;;;;;1.17;0.87;;;9.70;1.00;;;;;;5041667;28;21029;-84
2022/04/30 09:46:06;;;;;;;1.27;1.17;;;9.70;1.00;;;;;;5046964;28;20419;-79
2022/04/30 09:54:07;;;;;;;0.60;0.10;;;9.70;1.00;;;;;;5054207;28;20453;-84
2022/04/30 09:56:38;;;;;;;0.60;0.20;;;9.70;1.00;;;;;;5059211;28;20474;-84
2022/04/30 09:59:08;;;;;;;2.00;1.47;;;9.80;1.00;;;;;;5055993;28;20474;-82
2022/04/30 10:01:38;;;;;;;0.60;0.20;;;9.80;1.00;;;;;;5064235;28;20446;-81
2022/04/30 10:04:08;;;;;;;1.63;1.53;;;9.80;1.00;;;;;;5062735;28;20466;-82
2022/04/30 10:06:40;;;;;;;2.20;0.60;;;9.80;1.00;;;;;;5064658;28;20446;-81
2022/04/30 10:09:17;;;;;;;0.60;0.27;;;9.90;1.00;;;;;;5067922;28;21005;-85
2022/04/30 10:12:00;;;;;;;1.80;1.70;;;10.00;1.00;;;;;;5064416;28;20454;-83
2022/04/30 10:14:39;;;;;;;0.60;0.10;;;10.00;1.00;;;;;;5061253;28;20469;-83
2022/04/30 10:17:12;;;;;;;1.13;1.03;;;10.10;1.00;;;;;;5062355;28;20461;-84
2022/04/30 10:19:41;;;;;;;3.23;1.70;;;10.00;1.00;;;;;;5064108;28;20450;-82
2022/04/30 10:22:12;;;;;;;3.83;3.60;;;10.00;1.00;;;;;;5068449;28;20437;-85
2022/04/30 10:24:47;;;;;;;0.60;0.20;;;10.00;1.00;;;;;;5066775;28;20514;-82
2022/04/30 10:27:18;;;;;;;1.50;1.10;;;9.90;1.00;;;;;;5062000;28;20442;-83
2022/04/30 10:29:54;;;;;;;1.13;1.03;;;9.90;1.00;;;;;;5070427;28;20473;-81
2022/04/30 10:32:30;;;;;;;0.60;0.10;;;9.80;1.00;;;;;;5073213;28;20489;-84
2022/04/30 10:34:59;;;;;;;1.93;1.83;;;;;;;;;;5073997;28;20455;-80
2022/04/30 10:37:29;;;;;;;0.60;0.20;;;9.80;1.00;;;;;;5077593;28;20455;-82
2022/04/30 10:39:58;;;;;;;1.23;1.13;;;9.70;1.00;;;;;;5080000;28;20431;-83
2022/04/30 10:42:40;;;;;;;3.90;0.53;;;9.80;1.00;;;;;;5080583;28;20473;-80
2022/04/30 10:45:13;;;;;;;0.60;0.30;;;9.70;1.00;;;;;;5066110;28;20433;-79
2022/04/30 10:47:50;;;;;;;1.53;0.93;;;9.80;1.00;;;;;;5072201;28;20481;-78
2022/04/30 10:50:18;;;;;;;0.70;0.40;;;9.80;1.00;;;;;;5060903;28;20477;-82
2022/04/30 10:52:48;;;;;;;0.60;0.10;;;9.90;1.00;;;;;;5089182;28;20488;-82
2022/04/30 10:55:18;;;;;;;0.70;0.50;;;9.90;1.00;;;;;;5075998;28;20448;-79
2022/04/30 10:57:48;;;;;;;15.27;10.03;;;9.90;1.00;;;;;;5084407;28;20501;-80
2022/04/30 11:00:16;;;;;;;2.93;1.63;;;10.10;1.00;;;;;;5076001;28;20433;-81
2022/04/30 11:02:48;;;;;;;0.97;0.57;;;10.00;1.00;;;;;;5073706;28;20491;-82
2022/04/30 11:05:22;;;;;;;0.67;0.37;;;10.00;1.00;;;;;;5057311;28;20451;-82
2022/04/30 11:07:51;;;;;;;0.60;0.20;;;10.00;1.00;;;;;;5059712;28;20455;-82
2022/04/30 11:10:19;;;;;;;0.70;0.50;;;10.10;1.00;;;;;;5060097;28;20482;-81
2022/04/30 11:12:49;;;;;;;2.60;0.97;;;10.10;1.00;;;;;;5066769;28;20484;-80
2022/04/30 11:15:17;;;;;;;0.60;0.20;;;10.10;1.00;;;;;;5066723;28;20465;-83
2022/04/30 11:17:46;;;;;;;0.63;0.53;;;10.00;1.00;;;;;;5072502;28;20817;-83
2022/04/30 11:20:22;;;;;;;1.40;1.13;;;10.00;1.00;;;;;;5070946;28;20522;-83
2022/04/30 11:22:54;;;;;;;0.97;0.60;;;9.90;1.00;;;;;;5072903;28;20991;-80
2022/04/30 11:25:22;;;;;;;0.80;0.53;;;10.10;1.00;;;;;;5073253;28;20460;-81
2022/04/30 11:27:58;;;;;;;1.97;1.87;;;10.00;1.00;;;;;;5072765;28;20514;-80
2022/04/30 11:30:26;;;;;;;1.73;1.60;;;10.00;1.00;;;;;;5073661;28;20495;-82
2022/04/30 11:32:53;;;;;;;2.20;1.17;;;10.00;1.00;;;;;;5072606;28;20492;-82
2022/04/30 11:35:21;;;;;;;0.80;0.53;;;10.00;1.00;;;;;;5071636;28;20530;-82
2022/04/30 11:37:50;;;;;;;3.73;2.10;;;;;;;;;;5066218;28;20478;-83
2022/04/30 11:40:21;;;;;;;1.60;1.50;;;10.10;1.00;;;;;;5058992;28;20457;-81
2022/04/30 11:42:56;;;;;;;7.57;1.77;;;10.10;1.00;;;;;;5058307;28;20481;-83
2022/04/30 11:45:25;;;;;;;1.47;1.37;;;10.20;1.00;;;;;;5041770;28;20481;-83
2022/04/30 11:47:53;;;;;;;0.60;0.10;;;10.20;1.00;;;;;;5057987;28;20446;-82
2022/04/30 11:50:21;;;;;;;2.10;1.93;;;10.20;1.00;;;;;;5071469;28;20474;-79
2022/04/30 11:52:50;;;;;;;2.00;1.70;;;10.30;1.00;;;;;;5074835;28;20493;-80
2022/04/30 11:55:20;;;;;;;2.23;1.50;;;10.30;1.00;;;;;;5075412;28;20448;-79
2022/04/30 11:57:49;;;;;;;2.30;1.70;;;10.30;1.00;;;;;;5072646;28;20504;-79
2022/04/30 12:00:22;;;;;;;2.53;1.00;;;10.30;1.00;;;;;;5070824;28;20461;-81
2022/04/30 12:02:51;;;;;;;1.47;1.30;;;10.20;1.00;;;;;;5067921;28;20466;-83
2022/04/30 12:05:20;;;;;;;0.90;0.50;;;;;;;;;;5061702;28;20446;-84
2022/04/30 12:07:48;;;;;;;0.70;0.47;;;;;;;;;;5057838;28;20870;-84
2022/04/30 12:10:18;;;;;;;5.43;1.03;;;10.30;1.00;;;;;;5061172;28;20478;-83
2022/04/30 12:12:47;;;;;;;0.70;0.40;;;10.40;1.00;;;;;;5060378;28;20462;-84
2022/04/30 12:15:20;;;;;;;0.60;0.30;;;10.60;1.00;;;;;;5067454;28;20526;-82
2022/04/30 12:26:13;;;;;;;0.60;0.20;;;11.00;1.00;;;;;;5063840;28;20522;-84
2022/04/30 12:28:46;;;;;;;2.70;2.50;;;11.30;1.00;;;;;;5062987;28;20500;-84
2022/04/30 12:31:14;;;;;;;1.17;0.80;;;11.20;1.00;;;;;;5065589;28;20664;-84
2022/04/30 12:33:50;;;;;;;0.60;0.17;;;11.40;1.00;;;;;;5072293;28;20497;-85
2022/04/30 12:36:19;;;;;;;0.70;0.37;;;11.60;1.00;;;;;;5063243;28;20536;-82
2022/04/30 12:38:54;;;;;;;2.50;1.67;;;11.60;1.00;;;;;;5073585;28;20438;-81
2022/04/30 12:41:23;;;;;;;0.70;0.40;;;11.70;1.00;;;;;;5074197;28;20445;-79
2022/04/30 12:43:52;;;;;;;0.60;0.20;;;11.70;1.00;;;;;;5047061;28;21103;-82
2022/04/30 12:46:20;;;;;;;1.43;1.33;;;11.70;1.00;;;;;;5059668;28;20478;-81
2022/04/30 12:48:51;;;;;;;3.53;2.87;;;11.80;1.00;;;;;;5060935;28;20452;-80
2022/04/30 12:51:19;;;;;;;1.17;0.77;;;11.70;1.00;;;;;;5062716;28;20513;-82
2022/04/30 12:53:48;;;;;;;9.07;5.37;;;11.90;1.00;;;;;;5063200;28;20471;-82
2022/04/30 12:56:16;;;;;;;6.10;1.20;;;11.90;1.00;;;;;;5061882;28;20872;-84
2022/04/30 12:58:45;;;;;;;5.37;2.33;;;;;;;;;;5067373;28;20503;-80
2022/04/30 13:01:13;;;;;;;1.33;1.20;;;12.10;1.00;;;;;;5075154;28;20466;-79
2022/04/30 13:03:42;;;;;;;0.80;0.37;;;12.20;1.00;;;;;;5062002;28;20484;-84
2022/04/30 13:06:12;;;;;;;1.00;0.50;;;12.30;1.00;;;;;;5058851;28;20905;-80
2022/04/30 13:14:15;;;;;;;1.03;1.03;;;12.60;1.00;;;;;;5067365;28;20502;-83
2022/04/30 13:16:43;;;;;;;1.97;1.07;;;12.80;1.00;;;;;;5059147;28;20447;-83
2022/04/30 13:19:11;;;;;;;0.80;0.70;;;12.70;1.00;;;;;;5057521;28;20513;-83
2022/04/30 13:21:41;;;;;;;0.60;0.20;;;;;;;;;;5051333;28;20446;-83
2022/04/30 13:24:09;;;;;;;1.80;1.70;;;;;;;;;;5065487;28;20469;-86
2022/04/30 13:26:38;;;;;;;0.90;0.73;;;13.10;1.00;;;;;;5069572;28;20452;-83
2022/04/30 13:29:07;;;;;;;0.80;0.77;;;13.20;1.00;;;;;;5074138;28;20441;-85
2022/04/30 13:31:35;;;;;;;0.70;0.33;;;13.10;1.00;;;;;;5062896;28;20555;-85
2022/04/30 13:34:03;;;;;;;2.37;1.53;;;13.00;1.00;;;;;;5059876;28;20471;-82
2022/04/30 13:36:33;;;;;;;0.97;0.70;;;;;;;;;;5064077;28;20451;-86
2022/04/30 13:39:03;;;;;;;0.70;0.30;;;;;;;;;;5066495;28;20453;-85
2022/04/30 13:41:32;;;;;;;3.07;1.37;;;;;;;;;;5064326;28;20429;-85
2022/04/30 13:43:59;;;;;;;1.20;1.10;;;12.90;1.00;;;;;;5065653;28;20443;-85
2022/04/30 13:46:27;;;;;;;4.90;2.97;;;12.90;1.00;;;;;;5068935;28;20467;-82
2022/04/30 13:48:56;;;;;;;0.93;0.83;;;12.80;1.00;;;;;;5067051;28;20455;-84
2022/04/30 13:51:24;;;;;;;1.37;1.27;;;12.80;1.00;;;;;;5068767;28;20502;-85
2022/04/30 13:53:52;;;;;;;3.27;1.77;;;12.80;1.00;;;;;;5066122;28;20469;-84
2022/04/30 13:56:21;;;;;;;1.33;0.83;;;;;;;;;;5066134;28;20905;-86
2022/04/30 13:58:50;;;;;;;1.70;1.60;;;;;;;;;;5071538;28;20455;-81
2022/04/30 14:01:18;;;;;;;2.30;1.90;;;12.60;1.00;;;;;;5080580;28;20449;-81
2022/04/30 14:03:46;;;;;;;2.80;2.10;;;12.60;1.00;;;;;;5066804;28;20473;-84
2022/04/30 14:06:14;;;;;;;1.37;1.03;;;12.60;1.00;;;;;;5061817;28;20798;-85
2022/04/30 14:08:43;;;;;;;4.80;4.40;;;12.60;1.00;;;;;;5063072;28;20468;-84
2022/04/30 14:11:11;;;;;;;1.10;0.53;;;12.60;1.00;;;;;;5064686;28;20475;-84